sensor_id;sensor_type;location;lat;lon;timestamp;P1;durP1;ratioP1;P2;durP2;ratioP2
757;SDS011;363;48.764;9.172;2023-09-07T00:01:29;5.10;;;4.70;;
757;SDS011;363;48.764;9.172;2023-09-07T00:03:55;5.00;;;4.60;;
757;SDS011;363;48.764;9.172;2023-09-07T00:06:20;4.43;;;4.00;;
757;SDS011;363;48.764;9.172;2023-09-07T00:08:46;4.60;;;4.20;;
757;SDS011;363;48.764;9.172;2023-09-07T00:11:12;4.27;;;3.90;;
757;SDS011;363;48.764;9.172;2023-09-07T00:13:37;4.57;;;4.17;;
757;SDS011;363;48.764;9.172;2023-09-07T00:16:04;4.53;;;4.13;;
757;SDS011;363;48.764;9.172;2023-09-07T00:18:30;4.68;;;4.15;;
757;SDS011;363;48.764;9.172;2023-09-07T00:20:56;4.75;;;4.25;;
757;SDS011;363;48.764;9.172;2023-09-07T00:23:22;4.47;;;4.17;;
757;SDS011;363;48.764;9.172;2023-09-07T00:25:47;4.67;;;4.27;;
757;SDS011;363;48.764;9.172;2023-09-07T00:28:13;4.83;;;4.37;;
757;SDS011;363;48.764;9.172;2023-09-07T00:30:39;5.13;;;4.40;;
757;SDS011;363;48.764;9.172;2023-09-07T00:33:05;4.72;;;4.28;;
757;SDS011;363;48.764;9.172;2023-09-07T00:35:31;4.30;;;4.00;;
757;SDS011;363;48.764;9.172;2023-09-07T00:37:56;5.30;;;4.90;;
757;SDS011;363;48.764;9.172;2023-09-07T00:40:22;4.83;;;4.33;;
757;SDS011;363;48.764;9.172;2023-09-07T00:42:48;4.35;;;4.05;;
757;SDS011;363;48.764;9.172;2023-09-07T00:45:14;4.77;;;4.30;;
757;SDS011;363;48.764;9.172;2023-09-07T00:47:40;4.25;;;3.95;;
757;SDS011;363;48.764;9.172;2023-09-07T00:50:06;5.35;;;4.85;;
757;SDS011;363;48.764;9.172;2023-09-07T00:52:32;4.70;;;4.30;;
757;SDS011;363;48.764;9.172;2023-09-07T00:55:01;6.95;;;4.32;;
757;SDS011;363;48.764;9.172;2023-09-07T00:57:27;4.95;;;4.53;;
757;SDS011;363;48.764;9.172;2023-09-07T00:59:52;5.53;;;4.20;;
757;SDS011;363;48.764;9.172;2023-09-07T01:02:19;4.20;;;3.90;;
757;SDS011;363;48.764;9.172;2023-09-07T01:04:44;4.90;;;3.90;;
757;SDS011;363;48.764;9.172;2023-09-07T01:09:57;4.72;;;3.92;;
757;SDS011;363;48.764;9.172;2023-09-07T01:12:25;4.70;;;4.40;;
757;SDS011;363;48.764;9.172;2023-09-07T01:14:51;4.80;;;4.40;;
757;SDS011;363;48.764;9.172;2023-09-07T01:17:18;4.30;;;3.95;;
757;SDS011;363;48.764;9.172;2023-09-07T01:19:43;5.00;;;4.50;;
757;SDS011;363;48.764;9.172;2023-09-07T01:22:10;4.57;;;4.18;;
757;SDS011;363;48.764;9.172;2023-09-07T01:24:47;5.28;;;4.00;;
757;SDS011;363;48.764;9.172;2023-09-07T01:27:13;4.22;;;3.90;;
757;SDS011;363;48.764;9.172;2023-09-07T01:29:38;4.33;;;3.93;;
757;SDS011;363;48.764;9.172;2023-09-07T01:32:05;4.40;;;4.03;;
757;SDS011;363;48.764;9.172;2023-09-07T01:34:32;4.60;;;4.30;;
757;SDS011;363;48.764;9.172;2023-09-07T01:36:57;4.20;;;3.90;;
757;SDS011;363;48.764;9.172;2023-09-07T01:39:23;4.67;;;4.27;;
757;SDS011;363;48.764;9.172;2023-09-07T01:41:49;4.33;;;3.87;;
757;SDS011;363;48.764;9.172;2023-09-07T01:44:14;4.03;;;3.67;;
757;SDS011;363;48.764;9.172;2023-09-07T01:46:40;4.90;;;4.40;;
757;SDS011;363;48.764;9.172;2023-09-07T01:49:05;4.63;;;4.23;;
757;SDS011;363;48.764;9.172;2023-09-07T01:51:31;4.50;;;4.07;;
757;SDS011;363;48.764;9.172;2023-09-07T01:53:57;5.03;;;4.53;;
757;SDS011;363;48.764;9.172;2023-09-07T01:56:22;4.83;;;4.20;;
757;SDS011;363;48.764;9.172;2023-09-07T01:58:48;4.33;;;3.93;;
757;SDS011;363;48.764;9.172;2023-09-07T02:01:20;4.20;;;3.90;;
757;SDS011;363;48.764;9.172;2023-09-07T02:03:46;5.00;;;4.25;;
757;SDS011;363;48.764;9.172;2023-09-07T02:06:11;5.07;;;4.60;;
757;SDS011;363;48.764;9.172;2023-09-07T02:08:37;5.57;;;4.53;;
757;SDS011;363;48.764;9.172;2023-09-07T02:11:02;4.10;;;3.70;;
757;SDS011;363;48.764;9.172;2023-09-07T02:13:30;4.30;;;3.90;;
757;SDS011;363;48.764;9.172;2023-09-07T02:15:56;5.20;;;4.20;;
757;SDS011;363;48.764;9.172;2023-09-07T02:18:22;4.30;;;4.00;;
757;SDS011;363;48.764;9.172;2023-09-07T02:20:47;4.47;;;3.93;;
757;SDS011;363;48.764;9.172;2023-09-07T02:23:13;4.40;;;4.00;;
757;SDS011;363;48.764;9.172;2023-09-07T02:25:40;5.68;;;4.43;;
757;SDS011;363;48.764;9.172;2023-09-07T02:28:05;5.43;;;4.93;;
757;SDS011;363;48.764;9.172;2023-09-07T02:30:31;4.67;;;4.20;;
757;SDS011;363;48.764;9.172;2023-09-07T02:32:57;5.07;;;4.67;;
757;SDS011;363;48.764;9.172;2023-09-07T02:35:22;5.23;;;4.67;;
757;SDS011;363;48.764;9.172;2023-09-07T02:37:48;5.43;;;4.23;;
757;SDS011;363;48.764;9.172;2023-09-07T02:40:18;6.57;;;4.90;;
757;SDS011;363;48.764;9.172;2023-09-07T02:42:43;4.57;;;4.18;;
757;SDS011;363;48.764;9.172;2023-09-07T02:45:12;5.60;;;4.40;;
757;SDS011;363;48.764;9.172;2023-09-07T02:47:39;5.93;;;4.95;;
757;SDS011;363;48.764;9.172;2023-09-07T02:50:05;4.03;;;3.73;;
757;SDS011;363;48.764;9.172;2023-09-07T02:52:30;4.85;;;4.45;;
757;SDS011;363;48.764;9.172;2023-09-07T02:54:56;5.27;;;4.33;;
757;SDS011;363;48.764;9.172;2023-09-07T02:57:22;5.13;;;4.00;;
757;SDS011;363;48.764;9.172;2023-09-07T02:59:47;5.57;;;4.43;;
757;SDS011;363;48.764;9.172;2023-09-07T03:02:13;5.60;;;5.00;;
757;SDS011;363;48.764;9.172;2023-09-07T03:04:39;5.53;;;4.93;;
757;SDS011;363;48.764;9.172;2023-09-07T03:07:04;5.50;;;5.00;;
757;SDS011;363;48.764;9.172;2023-09-07T03:09:30;4.83;;;4.37;;
757;SDS011;363;48.764;9.172;2023-09-07T03:11:55;4.70;;;4.30;;
757;SDS011;363;48.764;9.172;2023-09-07T03:14:21;4.80;;;4.40;;
757;SDS011;363;48.764;9.172;2023-09-07T03:16:47;5.10;;;4.00;;
757;SDS011;363;48.764;9.172;2023-09-07T03:19:16;5.65;;;5.15;;
757;SDS011;363;48.764;9.172;2023-09-07T03:21:42;4.90;;;4.50;;
757;SDS011;363;48.764;9.172;2023-09-07T03:24:07;5.03;;;4.37;;
757;SDS011;363;48.764;9.172;2023-09-07T03:26:33;4.93;;;4.43;;
757;SDS011;363;48.764;9.172;2023-09-07T03:28:59;4.50;;;4.10;;
757;SDS011;363;48.764;9.172;2023-09-07T03:31:25;5.00;;;4.50;;
757;SDS011;363;48.764;9.172;2023-09-07T03:33:51;5.50;;;4.73;;
757;SDS011;363;48.764;9.172;2023-09-07T03:36:16;5.03;;;4.53;;
757;SDS011;363;48.764;9.172;2023-09-07T03:38:42;5.40;;;4.90;;
757;SDS011;363;48.764;9.172;2023-09-07T03:41:08;6.30;;;5.25;;
757;SDS011;363;48.764;9.172;2023-09-07T03:43:34;4.80;;;4.40;;
757;SDS011;363;48.764;9.172;2023-09-07T03:45:59;5.63;;;4.10;;
757;SDS011;363;48.764;9.172;2023-09-07T03:48:25;5.17;;;4.60;;
757;SDS011;363;48.764;9.172;2023-09-07T03:50:50;4.93;;;4.43;;
757;SDS011;363;48.764;9.172;2023-09-07T03:53:16;6.87;;;4.47;;
757;SDS011;363;48.764;9.172;2023-09-07T03:55:42;6.20;;;4.67;;
757;SDS011;363;48.764;9.172;2023-09-07T03:58:09;6.82;;;6.20;;
757;SDS011;363;48.764;9.172;2023-09-07T04:00:39;5.22;;;4.72;;
757;SDS011;363;48.764;9.172;2023-09-07T04:03:06;5.88;;;5.07;;
757;SDS011;363;48.764;9.172;2023-09-07T04:05:32;7.40;;;4.93;;
757;SDS011;363;48.764;9.172;2023-09-07T04:07:57;7.03;;;4.73;;
757;SDS011;363;48.764;9.172;2023-09-07T04:10:24;5.53;;;4.93;;
757;SDS011;363;48.764;9.172;2023-09-07T04:12:50;4.93;;;4.53;;
757;SDS011;363;48.764;9.172;2023-09-07T04:15:15;5.40;;;4.90;;
757;SDS011;363;48.764;9.172;2023-09-07T04:17:41;4.67;;;4.27;;
757;SDS011;363;48.764;9.172;2023-09-07T04:20:07;5.27;;;4.77;;
757;SDS011;363;48.764;9.172;2023-09-07T04:22:34;8.23;;;4.90;;
757;SDS011;363;48.764;9.172;2023-09-07T04:25:00;5.10;;;4.70;;
757;SDS011;363;48.764;9.172;2023-09-07T04:27:26;4.90;;;4.43;;
757;SDS011;363;48.764;9.172;2023-09-07T04:29:51;5.33;;;4.83;;
757;SDS011;363;48.764;9.172;2023-09-07T04:32:18;5.13;;;4.63;;
757;SDS011;363;48.764;9.172;2023-09-07T04:34:44;5.77;;;5.17;;
757;SDS011;363;48.764;9.172;2023-09-07T04:37:11;6.82;;;5.30;;
757;SDS011;363;48.764;9.172;2023-09-07T04:39:36;5.53;;;5.03;;
757;SDS011;363;48.764;9.172;2023-09-07T04:42:02;10.07;;;5.30;;
757;SDS011;363;48.764;9.172;2023-09-07T04:44:27;5.60;;;5.10;;
757;SDS011;363;48.764;9.172;2023-09-07T04:46:56;4.77;;;4.37;;
757;SDS011;363;48.764;9.172;2023-09-07T04:49:23;5.25;;;4.85;;
757;SDS011;363;48.764;9.172;2023-09-07T04:51:49;7.20;;;5.30;;
757;SDS011;363;48.764;9.172;2023-09-07T04:54:17;6.32;;;5.07;;
757;SDS011;363;48.764;9.172;2023-09-07T04:56:43;7.60;;;5.60;;
757;SDS011;363;48.764;9.172;2023-09-07T04:59:08;5.57;;;5.07;;
757;SDS011;363;48.764;9.172;2023-09-07T05:01:35;5.90;;;5.40;;
757;SDS011;363;48.764;9.172;2023-09-07T05:04:00;6.80;;;5.17;;
757;SDS011;363;48.764;9.172;2023-09-07T05:06:28;7.20;;;5.40;;
757;SDS011;363;48.764;9.172;2023-09-07T05:08:54;6.43;;;5.70;;
757;SDS011;363;48.764;9.172;2023-09-07T05:11:20;6.10;;;5.50;;
757;SDS011;363;48.764;9.172;2023-09-07T05:13:45;6.93;;;5.50;;
757;SDS011;363;48.764;9.172;2023-09-07T05:16:11;5.27;;;4.77;;
757;SDS011;363;48.764;9.172;2023-09-07T05:18:36;5.00;;;4.60;;
757;SDS011;363;48.764;9.172;2023-09-07T05:21:10;5.47;;;4.97;;
757;SDS011;363;48.764;9.172;2023-09-07T05:23:36;6.65;;;5.68;;
757;SDS011;363;48.764;9.172;2023-09-07T05:26:02;5.13;;;4.73;;
757;SDS011;363;48.764;9.172;2023-09-07T05:28:28;5.97;;;5.47;;
757;SDS011;363;48.764;9.172;2023-09-07T05:30:53;8.27;;;5.27;;
757;SDS011;363;48.764;9.172;2023-09-07T05:33:19;5.33;;;4.93;;
757;SDS011;363;48.764;9.172;2023-09-07T05:35:44;5.80;;;5.10;;
757;SDS011;363;48.764;9.172;2023-09-07T05:38:13;8.13;;;6.40;;
757;SDS011;363;48.764;9.172;2023-09-07T05:40:42;7.60;;;5.63;;
757;SDS011;363;48.764;9.172;2023-09-07T05:43:09;6.00;;;5.50;;
757;SDS011;363;48.764;9.172;2023-09-07T05:45:43;6.78;;;5.75;;
757;SDS011;363;48.764;9.172;2023-09-07T05:48:09;6.65;;;5.70;;
757;SDS011;363;48.764;9.172;2023-09-07T05:50:36;5.70;;;5.20;;
757;SDS011;363;48.764;9.172;2023-09-07T05:53:02;12.07;;;6.20;;
757;SDS011;363;48.764;9.172;2023-09-07T05:55:28;7.07;;;5.78;;
757;SDS011;363;48.764;9.172;2023-09-07T05:57:54;5.75;;;5.25;;
757;SDS011;363;48.764;9.172;2023-09-07T06:00:20;6.82;;;6.22;;
757;SDS011;363;48.764;9.172;2023-09-07T06:02:47;7.55;;;5.97;;
757;SDS011;363;48.764;9.172;2023-09-07T06:05:13;8.30;;;6.73;;
757;SDS011;363;48.764;9.172;2023-09-07T06:07:39;6.30;;;5.70;;
757;SDS011;363;48.764;9.172;2023-09-07T06:10:04;6.73;;;5.90;;
757;SDS011;363;48.764;9.172;2023-09-07T06:12:30;6.50;;;5.90;;
757;SDS011;363;48.764;9.172;2023-09-07T06:14:57;6.72;;;6.03;;
757;SDS011;363;48.764;9.172;2023-09-07T06:17:22;8.23;;;6.27;;
757;SDS011;363;48.764;9.172;2023-09-07T06:19:48;6.87;;;6.27;;
757;SDS011;363;48.764;9.172;2023-09-07T06:22:13;8.70;;;6.53;;
757;SDS011;363;48.764;9.172;2023-09-07T06:24:39;6.83;;;6.23;;
757;SDS011;363;48.764;9.172;2023-09-07T06:27:05;6.80;;;6.17;;
757;SDS011;363;48.764;9.172;2023-09-07T06:29:30;8.70;;;6.10;;
757;SDS011;363;48.764;9.172;2023-09-07T06:31:56;7.50;;;6.67;;
757;SDS011;363;48.764;9.172;2023-09-07T06:34:21;6.90;;;6.30;;
757;SDS011;363;48.764;9.172;2023-09-07T06:36:47;7.20;;;6.60;;
757;SDS011;363;48.764;9.172;2023-09-07T06:39:13;7.63;;;6.83;;
757;SDS011;363;48.764;9.172;2023-09-07T06:41:38;7.83;;;7.03;;
757;SDS011;363;48.764;9.172;2023-09-07T06:44:04;7.37;;;6.67;;
757;SDS011;363;48.764;9.172;2023-09-07T06:46:29;6.97;;;6.30;;
757;SDS011;363;48.764;9.172;2023-09-07T06:48:55;9.00;;;7.00;;
757;SDS011;363;48.764;9.172;2023-09-07T06:51:21;8.80;;;7.40;;
757;SDS011;363;48.764;9.172;2023-09-07T06:53:46;6.90;;;6.30;;
757;SDS011;363;48.764;9.172;2023-09-07T06:56:12;8.20;;;7.37;;
757;SDS011;363;48.764;9.172;2023-09-07T06:58:37;7.97;;;7.17;;
757;SDS011;363;48.764;9.172;2023-09-07T07:01:03;7.93;;;6.43;;
757;SDS011;363;48.764;9.172;2023-09-07T07:03:29;6.80;;;6.20;;
757;SDS011;363;48.764;9.172;2023-09-07T07:05:56;7.43;;;6.73;;
757;SDS011;363;48.764;9.172;2023-09-07T07:08:22;8.57;;;7.60;;
757;SDS011;363;48.764;9.172;2023-09-07T07:10:48;7.40;;;6.70;;
757;SDS011;363;48.764;9.172;2023-09-07T07:13:14;6.63;;;6.07;;
757;SDS011;363;48.764;9.172;2023-09-07T07:15:40;9.37;;;6.57;;
757;SDS011;363;48.764;9.172;2023-09-07T07:18:06;8.90;;;6.67;;
757;SDS011;363;48.764;9.172;2023-09-07T07:20:36;5.57;;;5.17;;
757;SDS011;363;48.764;9.172;2023-09-07T07:23:06;8.33;;;6.07;;
757;SDS011;363;48.764;9.172;2023-09-07T07:25:32;7.30;;;6.70;;
757;SDS011;363;48.764;9.172;2023-09-07T07:27:59;6.70;;;6.20;;
757;SDS011;363;48.764;9.172;2023-09-07T07:30:27;8.83;;;7.93;;
757;SDS011;363;48.764;9.172;2023-09-07T07:32:54;6.70;;;6.03;;
757;SDS011;363;48.764;9.172;2023-09-07T07:35:20;7.10;;;6.50;;
757;SDS011;363;48.764;9.172;2023-09-07T07:37:45;5.90;;;5.50;;
757;SDS011;363;48.764;9.172;2023-09-07T07:40:11;6.93;;;6.37;;
757;SDS011;363;48.764;9.172;2023-09-07T07:42:36;5.50;;;5.10;;
757;SDS011;363;48.764;9.172;2023-09-07T07:45:02;5.50;;;5.10;;
757;SDS011;363;48.764;9.172;2023-09-07T07:47:28;6.23;;;5.63;;
757;SDS011;363;48.764;9.172;2023-09-07T07:49:53;5.57;;;5.17;;
757;SDS011;363;48.764;9.172;2023-09-07T07:52:19;7.70;;;5.63;;
757;SDS011;363;48.764;9.172;2023-09-07T07:54:45;6.03;;;5.50;;
757;SDS011;363;48.764;9.172;2023-09-07T07:57:10;5.57;;;5.17;;
757;SDS011;363;48.764;9.172;2023-09-07T07:59:36;5.67;;;5.17;;
757;SDS011;363;48.764;9.172;2023-09-07T08:02:02;14.57;;;6.83;;
757;SDS011;363;48.764;9.172;2023-09-07T08:04:28;6.20;;;5.80;;
757;SDS011;363;48.764;9.172;2023-09-07T08:06:54;12.73;;;7.87;;
757;SDS011;363;48.764;9.172;2023-09-07T08:09:23;6.90;;;6.20;;
757;SDS011;363;48.764;9.172;2023-09-07T08:11:49;8.20;;;5.50;;
757;SDS011;363;48.764;9.172;2023-09-07T08:14:15;5.83;;;5.30;;
757;SDS011;363;48.764;9.172;2023-09-07T08:16:41;11.03;;;6.70;;
757;SDS011;363;48.764;9.172;2023-09-07T08:19:06;5.20;;;4.80;;
757;SDS011;363;48.764;9.172;2023-09-07T08:21:33;5.67;;;5.37;;
757;SDS011;363;48.764;9.172;2023-09-07T08:24:08;5.80;;;5.40;;
757;SDS011;363;48.764;9.172;2023-09-07T08:26:41;5.97;;;5.57;;
757;SDS011;363;48.764;9.172;2023-09-07T08:29:17;7.50;;;5.60;;
757;SDS011;363;48.764;9.172;2023-09-07T08:31:45;5.87;;;5.37;;
757;SDS011;363;48.764;9.172;2023-09-07T08:34:13;6.40;;;5.90;;
757;SDS011;363;48.764;9.172;2023-09-07T08:36:40;6.70;;;6.10;;
757;SDS011;363;48.764;9.172;2023-09-07T08:39:06;6.50;;;6.10;;
757;SDS011;363;48.764;9.172;2023-09-07T08:41:38;6.30;;;5.80;;
757;SDS011;363;48.764;9.172;2023-09-07T08:44:20;7.50;;;6.80;;
757;SDS011;363;48.764;9.172;2023-09-07T08:46:49;6.93;;;6.30;;
757;SDS011;363;48.764;9.172;2023-09-07T08:49:16;6.87;;;6.30;;
757;SDS011;363;48.764;9.172;2023-09-07T08:51:46;7.03;;;6.43;;
757;SDS011;363;48.764;9.172;2023-09-07T08:54:12;6.33;;;5.80;;
757;SDS011;363;48.764;9.172;2023-09-07T08:56:38;6.20;;;5.80;;
757;SDS011;363;48.764;9.172;2023-09-07T08:59:03;7.47;;;6.83;;
757;SDS011;363;48.764;9.172;2023-09-07T09:01:29;7.40;;;6.80;;
757;SDS011;363;48.764;9.172;2023-09-07T09:03:56;7.00;;;6.50;;
757;SDS011;363;48.764;9.172;2023-09-07T09:06:23;8.83;;;6.07;;
757;SDS011;363;48.764;9.172;2023-09-07T09:08:50;7.60;;;6.97;;
757;SDS011;363;48.764;9.172;2023-09-07T09:11:19;7.07;;;6.53;;
757;SDS011;363;48.764;9.172;2023-09-07T09:13:47;6.83;;;6.20;;
757;SDS011;363;48.764;9.172;2023-09-07T09:16:14;7.80;;;7.10;;
757;SDS011;363;48.764;9.172;2023-09-07T09:21:19;7.07;;;6.47;;
757;SDS011;363;48.764;9.172;2023-09-07T09:23:46;8.33;;;6.60;;
757;SDS011;363;48.764;9.172;2023-09-07T09:26:14;7.30;;;6.70;;
757;SDS011;363;48.764;9.172;2023-09-07T09:28:40;6.97;;;6.40;;
757;SDS011;363;48.764;9.172;2023-09-07T09:31:07;8.73;;;6.83;;
757;SDS011;363;48.764;9.172;2023-09-07T09:33:37;7.27;;;6.60;;
757;SDS011;363;48.764;9.172;2023-09-07T09:36:23;6.90;;;6.30;;
757;SDS011;363;48.764;9.172;2023-09-07T09:38:49;7.20;;;6.60;;
757;SDS011;363;48.764;9.172;2023-09-07T09:41:18;6.83;;;6.43;;
757;SDS011;363;48.764;9.172;2023-09-07T09:43:45;7.60;;;6.90;;
757;SDS011;363;48.764;9.172;2023-09-07T09:46:14;7.20;;;6.50;;
757;SDS011;363;48.764;9.172;2023-09-07T09:48:40;7.37;;;6.70;;
757;SDS011;363;48.764;9.172;2023-09-07T09:51:07;6.47;;;5.87;;
757;SDS011;363;48.764;9.172;2023-09-07T09:53:33;6.70;;;6.10;;
757;SDS011;363;48.764;9.172;2023-09-07T09:55:59;7.13;;;6.53;;
757;SDS011;363;48.764;9.172;2023-09-07T09:58:25;7.30;;;6.70;;
757;SDS011;363;48.764;9.172;2023-09-07T10:00:53;7.30;;;6.70;;
757;SDS011;363;48.764;9.172;2023-09-07T10:05:53;7.70;;;6.90;;
757;SDS011;363;48.764;9.172;2023-09-07T10:08:19;7.20;;;6.50;;
757;SDS011;363;48.764;9.172;2023-09-07T10:10:48;7.50;;;6.80;;
757;SDS011;363;48.764;9.172;2023-09-07T10:13:27;6.90;;;6.30;;
757;SDS011;363;48.764;9.172;2023-09-07T10:16:00;6.57;;;6.07;;
757;SDS011;363;48.764;9.172;2023-09-07T10:18:33;6.30;;;5.80;;
757;SDS011;363;48.764;9.172;2023-09-07T10:21:00;7.17;;;6.57;;
757;SDS011;363;48.764;9.172;2023-09-07T10:23:41;6.70;;;6.20;;
757;SDS011;363;48.764;9.172;2023-09-07T10:26:11;7.40;;;6.73;;
757;SDS011;363;48.764;9.172;2023-09-07T10:28:38;7.23;;;6.63;;
757;SDS011;363;48.764;9.172;2023-09-07T10:33:43;6.53;;;5.93;;
757;SDS011;363;48.764;9.172;2023-09-07T10:36:19;7.00;;;6.40;;
757;SDS011;363;48.764;9.172;2023-09-07T10:38:50;6.63;;;6.13;;
757;SDS011;363;48.764;9.172;2023-09-07T10:41:19;7.30;;;6.60;;
757;SDS011;363;48.764;9.172;2023-09-07T10:43:48;7.80;;;6.90;;
757;SDS011;363;48.764;9.172;2023-09-07T10:46:19;6.73;;;6.23;;
757;SDS011;363;48.764;9.172;2023-09-07T10:48:48;9.57;;;6.63;;
757;SDS011;363;48.764;9.172;2023-09-07T10:51:17;7.73;;;7.07;;
757;SDS011;363;48.764;9.172;2023-09-07T10:53:44;7.57;;;6.97;;
757;SDS011;363;48.764;9.172;2023-09-07T10:56:09;8.37;;;7.63;;
757;SDS011;363;48.764;9.172;2023-09-07T10:58:36;8.37;;;7.40;;
757;SDS011;363;48.764;9.172;2023-09-07T11:01:07;8.07;;;7.47;;
757;SDS011;363;48.764;9.172;2023-09-07T11:03:34;8.40;;;7.70;;
757;SDS011;363;48.764;9.172;2023-09-07T11:08:42;8.43;;;7.60;;
757;SDS011;363;48.764;9.172;2023-09-07T11:11:08;8.30;;;7.60;;
757;SDS011;363;48.764;9.172;2023-09-07T11:13:34;8.63;;;7.73;;
757;SDS011;363;48.764;9.172;2023-09-07T11:16:00;7.70;;;7.00;;
757;SDS011;363;48.764;9.172;2023-09-07T11:18:27;8.20;;;7.50;;
757;SDS011;363;48.764;9.172;2023-09-07T11:20:52;7.07;;;6.43;;
757;SDS011;363;48.764;9.172;2023-09-07T11:23:19;8.17;;;7.50;;
757;SDS011;363;48.764;9.172;2023-09-07T11:25:46;8.83;;;8.03;;
757;SDS011;363;48.764;9.172;2023-09-07T11:28:14;8.50;;;7.90;;
757;SDS011;363;48.764;9.172;2023-09-07T11:33:16;8.50;;;7.70;;
757;SDS011;363;48.764;9.172;2023-09-07T11:35:42;9.70;;;8.80;;
757;SDS011;363;48.764;9.172;2023-09-07T11:38:08;8.57;;;7.87;;
757;SDS011;363;48.764;9.172;2023-09-07T11:40:37;7.00;;;6.30;;
757;SDS011;363;48.764;9.172;2023-09-07T11:43:03;7.47;;;6.87;;
757;SDS011;363;48.764;9.172;2023-09-07T11:45:28;8.30;;;7.60;;
757;SDS011;363;48.764;9.172;2023-09-07T11:47:54;7.50;;;6.97;;
757;SDS011;363;48.764;9.172;2023-09-07T11:50:22;8.33;;;7.73;;
757;SDS011;363;48.764;9.172;2023-09-07T11:52:49;8.60;;;7.80;;
757;SDS011;363;48.764;9.172;2023-09-07T11:55:15;8.33;;;7.63;;
757;SDS011;363;48.764;9.172;2023-09-07T11:57:40;8.40;;;7.70;;
757;SDS011;363;48.764;9.172;2023-09-07T12:00:06;7.93;;;7.23;;
757;SDS011;363;48.764;9.172;2023-09-07T12:02:36;8.50;;;7.10;;
757;SDS011;363;48.764;9.172;2023-09-07T12:05:05;8.60;;;7.80;;
757;SDS011;363;48.764;9.172;2023-09-07T12:07:33;7.97;;;7.37;;
757;SDS011;363;48.764;9.172;2023-09-07T12:09:59;7.67;;;6.90;;
757;SDS011;363;48.764;9.172;2023-09-07T12:12:24;6.80;;;6.20;;
757;SDS011;363;48.764;9.172;2023-09-07T12:14:50;9.50;;;8.70;;
757;SDS011;363;48.764;9.172;2023-09-07T12:17:15;7.43;;;6.83;;
757;SDS011;363;48.764;9.172;2023-09-07T12:19:41;10.40;;;8.90;;
757;SDS011;363;48.764;9.172;2023-09-07T12:22:07;7.23;;;6.60;;
757;SDS011;363;48.764;9.172;2023-09-07T12:24:33;6.87;;;6.37;;
757;SDS011;363;48.764;9.172;2023-09-07T12:26:58;6.60;;;5.93;;
757;SDS011;363;48.764;9.172;2023-09-07T12:29:25;7.67;;;6.97;;
757;SDS011;363;48.764;9.172;2023-09-07T12:31:50;6.83;;;6.33;;
757;SDS011;363;48.764;9.172;2023-09-07T12:34:16;6.70;;;6.00;;
757;SDS011;363;48.764;9.172;2023-09-07T12:36:42;6.77;;;6.23;;
757;SDS011;363;48.764;9.172;2023-09-07T12:39:07;7.80;;;6.40;;
757;SDS011;363;48.764;9.172;2023-09-07T12:41:33;6.10;;;5.70;;
757;SDS011;363;48.764;9.172;2023-09-07T12:43:59;6.70;;;6.10;;
757;SDS011;363;48.764;9.172;2023-09-07T12:46:24;6.87;;;6.20;;
757;SDS011;363;48.764;9.172;2023-09-07T12:48:50;7.10;;;6.50;;
757;SDS011;363;48.764;9.172;2023-09-07T12:51:16;7.23;;;6.53;;
757;SDS011;363;48.764;9.172;2023-09-07T12:53:41;5.83;;;5.43;;
757;SDS011;363;48.764;9.172;2023-09-07T12:56:07;6.37;;;5.77;;
757;SDS011;363;48.764;9.172;2023-09-07T12:58:32;6.40;;;5.90;;
757;SDS011;363;48.764;9.172;2023-09-07T13:00:58;6.00;;;5.50;;
757;SDS011;363;48.764;9.172;2023-09-07T13:03:24;6.27;;;5.77;;
757;SDS011;363;48.764;9.172;2023-09-07T13:05:49;6.20;;;5.70;;
757;SDS011;363;48.764;9.172;2023-09-07T13:08:15;6.40;;;5.90;;
757;SDS011;363;48.764;9.172;2023-09-07T13:10:41;6.30;;;5.90;;
757;SDS011;363;48.764;9.172;2023-09-07T13:13:06;6.93;;;6.23;;
757;SDS011;363;48.764;9.172;2023-09-07T13:15:32;6.07;;;5.57;;
757;SDS011;363;48.764;9.172;2023-09-07T13:17:58;6.83;;;6.23;;
757;SDS011;363;48.764;9.172;2023-09-07T13:20:24;6.00;;;5.50;;
757;SDS011;363;48.764;9.172;2023-09-07T13:22:49;5.80;;;5.40;;
757;SDS011;363;48.764;9.172;2023-09-07T13:25:15;5.83;;;5.33;;
757;SDS011;363;48.764;9.172;2023-09-07T13:27:40;5.67;;;5.27;;
757;SDS011;363;48.764;9.172;2023-09-07T13:30:06;5.73;;;5.33;;
757;SDS011;363;48.764;9.172;2023-09-07T13:32:37;6.30;;;5.80;;
757;SDS011;363;48.764;9.172;2023-09-07T13:35:03;5.60;;;5.10;;
757;SDS011;363;48.764;9.172;2023-09-07T13:37:30;5.67;;;5.27;;
757;SDS011;363;48.764;9.172;2023-09-07T13:39:55;5.60;;;5.20;;
757;SDS011;363;48.764;9.172;2023-09-07T13:42:21;5.53;;;5.20;;
757;SDS011;363;48.764;9.172;2023-09-07T13:44:46;6.53;;;6.03;;
757;SDS011;363;48.764;9.172;2023-09-07T13:47:12;6.57;;;5.20;;
757;SDS011;363;48.764;9.172;2023-09-07T13:49:38;5.40;;;5.00;;
757;SDS011;363;48.764;9.172;2023-09-07T13:52:04;5.77;;;5.37;;
757;SDS011;363;48.764;9.172;2023-09-07T13:54:29;5.60;;;5.10;;
757;SDS011;363;48.764;9.172;2023-09-07T13:56:55;6.10;;;5.60;;
757;SDS011;363;48.764;9.172;2023-09-07T13:59:21;6.63;;;6.00;;
757;SDS011;363;48.764;9.172;2023-09-07T14:01:47;9.93;;;5.50;;
757;SDS011;363;48.764;9.172;2023-09-07T14:04:14;5.80;;;5.30;;
757;SDS011;363;48.764;9.172;2023-09-07T14:06:40;5.80;;;5.40;;
757;SDS011;363;48.764;9.172;2023-09-07T14:09:05;5.60;;;5.17;;
757;SDS011;363;48.764;9.172;2023-09-07T14:18:15;5.20;;;4.53;;
757;SDS011;363;48.764;9.172;2023-09-07T14:20:41;6.40;;;5.80;;
757;SDS011;363;48.764;9.172;2023-09-07T14:23:06;5.90;;;5.23;;
757;SDS011;363;48.764;9.172;2023-09-07T14:25:32;4.70;;;4.40;;
757;SDS011;363;48.764;9.172;2023-09-07T14:27:57;5.20;;;4.87;;
757;SDS011;363;48.764;9.172;2023-09-07T14:30:23;5.50;;;5.20;;
757;SDS011;363;48.764;9.172;2023-09-07T14:32:49;5.30;;;4.90;;
757;SDS011;363;48.764;9.172;2023-09-07T14:35:15;5.60;;;5.10;;
757;SDS011;363;48.764;9.172;2023-09-07T14:37:40;5.57;;;5.17;;
757;SDS011;363;48.764;9.172;2023-09-07T14:40:06;5.13;;;4.73;;
757;SDS011;363;48.764;9.172;2023-09-07T14:42:32;5.93;;;5.43;;
757;SDS011;363;48.764;9.172;2023-09-07T14:44:58;5.43;;;5.03;;
757;SDS011;363;48.764;9.172;2023-09-07T14:47:26;5.50;;;5.00;;
757;SDS011;363;48.764;9.172;2023-09-07T14:49:53;6.00;;;5.60;;
757;SDS011;363;48.764;9.172;2023-09-07T14:52:19;6.37;;;5.90;;
757;SDS011;363;48.764;9.172;2023-09-07T14:54:47;5.50;;;5.10;;
757;SDS011;363;48.764;9.172;2023-09-07T14:57:13;5.93;;;5.07;;
757;SDS011;363;48.764;9.172;2023-09-07T14:59:38;5.47;;;5.10;;
757;SDS011;363;48.764;9.172;2023-09-07T15:02:07;5.50;;;5.00;;
757;SDS011;363;48.764;9.172;2023-09-07T15:04:33;5.23;;;4.83;;
757;SDS011;363;48.764;9.172;2023-09-07T15:06:59;6.17;;;5.67;;
757;SDS011;363;48.764;9.172;2023-09-07T15:09:25;5.57;;;5.17;;
757;SDS011;363;48.764;9.172;2023-09-07T15:11:51;6.03;;;5.17;;
757;SDS011;363;48.764;9.172;2023-09-07T15:14:18;5.67;;;5.27;;
757;SDS011;363;48.764;9.172;2023-09-07T15:16:44;5.27;;;4.87;;
757;SDS011;363;48.764;9.172;2023-09-07T15:19:10;5.27;;;4.87;;
757;SDS011;363;48.764;9.172;2023-09-07T15:21:35;6.20;;;5.70;;
757;SDS011;363;48.764;9.172;2023-09-07T15:24:01;5.40;;;5.00;;
757;SDS011;363;48.764;9.172;2023-09-07T15:26:26;5.57;;;5.17;;
757;SDS011;363;48.764;9.172;2023-09-07T15:28:53;5.50;;;5.00;;
757;SDS011;363;48.764;9.172;2023-09-07T15:31:24;5.70;;;5.27;;
757;SDS011;363;48.764;9.172;2023-09-07T15:33:53;6.27;;;5.77;;
757;SDS011;363;48.764;9.172;2023-09-07T15:36:20;6.23;;;4.80;;
757;SDS011;363;48.764;9.172;2023-09-07T15:38:46;5.47;;;5.10;;
757;SDS011;363;48.764;9.172;2023-09-07T15:41:13;5.80;;;5.30;;
757;SDS011;363;48.764;9.172;2023-09-07T15:43:38;5.40;;;4.90;;
757;SDS011;363;48.764;9.172;2023-09-07T15:46:04;5.40;;;5.00;;
757;SDS011;363;48.764;9.172;2023-09-07T15:48:30;5.43;;;5.03;;
757;SDS011;363;48.764;9.172;2023-09-07T15:50:57;6.07;;;5.50;;
757;SDS011;363;48.764;9.172;2023-09-07T15:53:22;5.63;;;5.13;;
757;SDS011;363;48.764;9.172;2023-09-07T15:55:48;4.57;;;4.17;;
757;SDS011;363;48.764;9.172;2023-09-07T15:58:13;5.70;;;5.20;;
757;SDS011;363;48.764;9.172;2023-09-07T16:00:39;6.20;;;5.70;;
757;SDS011;363;48.764;9.172;2023-09-07T16:03:05;6.53;;;4.87;;